»·PEaware :: JUS326 KSLC-KGJT

JUS326 :: KSLC-KGJT

FLIGHT INFORMATION

Flight Status: Arrived
Operator:
USA Jet
More flights by this operator :: More flights under this callsign
Pilot: Erik S. (3779)
Aircraft: BOEING 737-300
(B733)
More flights by this aircraft type
Origin: KSLC Salt Lake City Intl
United States
Destination: KGJT Walker
United States
More flights between these airports :: More routes between these airports
Route: +NSIGN5 MTU JNC
File this flight plan on PilotEdge
Remarks:
Altitude:
(Current/Filed)
27,000ft
Speed:
(Current/Filed)
400kts
Departed: 07-Jan-18 03:36 PM
Arrived: 07-Jan-18 04:17 PM
Distance/Time
Traveled:
188nm/0:40
Distance/Time
To Go:
Arrived

Flight Plot

Page will automatically refresh every two minutes.

Flight plan parsing failed; only flown route is shown


Map Options




Map Legend


Flown Route
Filed Route
Departure Airport
Arrival Airport
Navaid (VOR, NDB)
Fix

Horizontal Profiles

Position Reports

Time Latitude Longitude Heading Altitude Ground
Speed
07-Jan-18 15:22 40.802281 -111.985548 0 4234ft 0kts
07-Jan-18 15:23 40.802281 -111.985548 0 4234ft 0kts
07-Jan-18 15:24 40.802281 -111.985548 0 4234ft 0kts
07-Jan-18 15:25 40.802281 -111.985548 0 4234ft 0kts
07-Jan-18 15:26 40.802281 -111.985548 0 4234ft 0kts
07-Jan-18 15:27 40.802281 -111.985548 0 4234ft 0kts
07-Jan-18 15:28 40.802281 -111.985548 0 4234ft 0kts
07-Jan-18 15:29 40.802281 -111.985548 0 4234ft 0kts
07-Jan-18 15:30 40.801999 -111.985544 0 4234ft 0kts
07-Jan-18 15:31 40.801657 -111.985963 76 4234ft 0kts
07-Jan-18 15:32 40.801657 -111.985963 61 4234ft 0kts
07-Jan-18 15:33 40.801671 -111.985943 47 4234ft 0kts
07-Jan-18 15:34 40.802046 -111.982049 95 4234ft 20kts
07-Jan-18 15:35 40.799353 -111.978153 174 4234ft 16kts
07-Jan-18 15:36 40.794456 -111.977631 173 4234ft 21kts
07-Jan-18 15:37 40.787855 -111.976851 175 4234ft 26kts
07-Jan-18 15:38 40.779398 -111.975852 174 4234ft 34kts
07-Jan-18 15:39 40.775094 -111.973192 357 4234ft 0kts
07-Jan-18 15:40 40.775267 -111.973194 357 4234ft 0kts
07-Jan-18 15:41 40.775388 -111.973195 357 4234ft 0kts
07-Jan-18 15:42 40.779144 -111.973613 355 4234ft 90kts
07-Jan-18 15:43 40.825741 -111.978981 355 6006ft 205kts
07-Jan-18 15:44 40.889470 -111.986677 352 8339ft 251kts
07-Jan-18 15:45 40.960221 -111.997540 352 11281ft 264kts
07-Jan-18 15:46 41.035581 -112.008776 351 12971ft 273kts
07-Jan-18 15:47 41.104985 -111.984134 44 13554ft 301kts
07-Jan-18 15:48 41.149963 -111.888574 98 15699ft 333kts
07-Jan-18 15:49 41.123312 -111.770744 137 17922ft 341kts
07-Jan-18 15:50 41.035948 -111.736282 169 19866ft 343kts
07-Jan-18 15:51 40.943349 -111.700898 166 21651ft 358kts
07-Jan-18 15:52 40.847417 -111.661943 166 23179ft 374kts
07-Jan-18 15:53 40.751581 -111.617738 144 23985ft 386kts
07-Jan-18 15:54 40.712663 -111.480855 106 24156ft 435kts
07-Jan-18 15:55 40.671504 -111.331046 110 25720ft 440kts
07-Jan-18 15:56 40.628050 -111.180969 110 27205ft 444kts
07-Jan-18 15:57 40.590220 -111.050543 109 27225ft 472kts
07-Jan-18 15:58 40.533924 -110.856895 109 27269ft 498kts
07-Jan-18 15:59 40.484562 -110.687629 110 27281ft 496kts
07-Jan-18 16:00 40.442829 -110.547628 110 27254ft 496kts
07-Jan-18 16:01 40.368062 -110.400988 140 27267ft 497kts
07-Jan-18 16:02 40.267242 -110.277037 136 27281ft 496kts
07-Jan-18 16:03 40.168321 -110.151412 136 27294ft 497kts
07-Jan-18 16:04 40.068831 -110.027139 136 27286ft 497kts
07-Jan-18 16:05 39.968915 -109.902531 136 27290ft 496kts
07-Jan-18 16:06 39.869776 -109.778191 137 27071ft 494kts
07-Jan-18 16:07 39.774572 -109.660424 137 24484ft 447kts
07-Jan-18 16:08 39.690393 -109.556679 137 24229ft 419kts
07-Jan-18 16:09 39.603740 -109.450296 137 23314ft 428kts
07-Jan-18 16:10 39.520763 -109.348783 137 20334ft 397kts
07-Jan-18 16:11 39.443631 -109.254748 137 17118ft 375kts
07-Jan-18 16:12 39.369733 -109.165617 138 13989ft 354kts
07-Jan-18 16:13 39.299911 -109.082018 137 10948ft 336kts
07-Jan-18 16:14 39.236636 -109.008789 137 9980ft 264kts
07-Jan-18 16:15 39.207844 -108.935977 80 9052ft 240kts
07-Jan-18 16:16 39.215917 -108.857011 79 8426ft 219kts
07-Jan-18 16:17 39.223993 -108.781855 79 7089ft 204kts
07-Jan-18 16:18 39.224130 -108.711493 102 7017ft 176kts
07-Jan-18 16:19 39.199976 -108.661302 125 6964ft 151kts
07-Jan-18 16:20 39.175867 -108.619050 122 6163ft 144kts
07-Jan-18 16:21 39.153032 -108.577273 122 5453ft 141kts
07-Jan-18 16:22 39.131135 -108.537202 123 4864ft 119kts
07-Jan-18 16:23 39.125443 -108.529389 124 4864ft 0kts
07-Jan-18 16:24 39.124028 -108.526856 124 4864ft 30kts
07-Jan-18 16:25 39.122259 -108.526885 211 4864ft 0kts
07-Jan-18 16:26 39.122259 -108.526885 211 4864ft 0kts
07-Jan-18 16:27 39.122259 -108.526885 211 4864ft 0kts
07-Jan-18 16:28 39.122259 -108.526885 211 4864ft 0kts
07-Jan-18 16:29 39.122259 -108.526885 211 4864ft 0kts
07-Jan-18 16:30 39.122259 -108.526885 211 4864ft 0kts
07-Jan-18 16:31 39.122259 -108.526885 211 4864ft 0kts
07-Jan-18 16:32 39.122259 -108.526885 211 4864ft 0kts
07-Jan-18 16:33 39.122259 -108.526885 211 4864ft 0kts
07-Jan-18 16:34 39.122259 -108.526885 211 4864ft 0kts
07-Jan-18 16:35 39.122259 -108.526885 211 4864ft 0kts
07-Jan-18 16:36 39.122259 -108.526885 211 4864ft 0kts
07-Jan-18 16:37 39.122259 -108.526885 211 4864ft 0kts

Navigation Log

Ident Type
Flight plan parsing failed, navigation log unavailable